Time;durP1;ratioP1;P1;durP2;ratioP2;P2;SDS_P1;SDS_P2;PMS_P1;PMS_P2;Temp;Humidity;BMP_temperature;BMP_pressure;BME280_temperature;BME280_humidity;BME280_pressure;Samples;Min_cycle;Max_cycle;Signal;HPM_P1;HPM_P2
2023/12/16 00:01:27;;;;;;;2.60;2.00;;;;;;;13.52;52.45;99349.02;105544;1256;75190;-42
2023/12/16 00:03:55;;;;;;;2.30;2.10;;;;;;;13.52;52.52;99352.40;105623;1260;63921;-41
2023/12/16 00:06:23;;;;;;;2.60;2.10;;;;;;;13.52;52.44;99350.20;105607;1256;72968;-41
2023/12/16 00:08:50;;;;;;;2.20;2.00;;;;;;;13.52;52.48;99352.88;105260;1261;61991;-42
2023/12/16 00:11:18;;;;;;;2.50;2.00;;;;;;;13.53;52.45;99351.44;105619;1262;62197;-42
2023/12/16 00:13:45;;;;;;;2.20;2.00;;;;;;;13.53;52.37;99351.15;105201;1261;75425;-41
2023/12/16 00:16:12;;;;;;;2.00;1.90;;;;;;;13.53;52.46;99353.33;105482;1261;65846;-44
2023/12/16 00:18:40;;;;;;;2.20;2.00;;;;;;;13.53;52.35;99351.48;105370;1257;72439;-41
2023/12/16 00:21:08;;;;;;;2.00;1.80;;;;;;;13.54;52.36;99351.20;105482;1260;62064;-41
2023/12/16 00:23:35;;;;;;;2.20;2.00;;;;;;;13.54;52.37;99353.48;105272;1257;62197;-43
2023/12/16 00:26:02;;;;;;;2.00;1.80;;;;;;;13.54;52.29;99351.85;105408;1262;75947;-43
2023/12/16 00:28:30;;;;;;;2.00;1.80;;;;;;;13.54;52.41;99355.30;105356;1260;66386;-41
2023/12/16 00:30:57;;;;;;;1.90;1.70;;;;;;;13.55;52.37;99359.89;105357;1256;72660;-43
2023/12/16 00:33:25;;;;;;;2.30;1.80;;;;;;;13.55;52.41;99365.58;105383;1256;62085;-43
2023/12/16 00:35:52;;;;;;;2.10;1.80;;;;;;;13.55;52.37;99369.35;105666;1259;62155;-43
2023/12/16 00:38:20;;;;;;;1.90;1.70;;;;;;;13.55;52.47;99375.43;105509;1262;75137;-43
2023/12/16 00:40:48;;;;;;;2.50;2.00;;;;;;;13.55;52.39;99380.11;105716;1262;65790;-41
2023/12/16 00:43:15;;;;;;;2.30;2.10;;;;;;;13.55;52.29;99379.85;105593;1257;72652;-41
2023/12/16 00:45:42;;;;;;;3.90;2.10;;;;;;;13.55;52.42;99382.21;105708;1262;62083;-41
2023/12/16 00:48:10;;;;;;;3.80;2.00;;;;;;;13.55;52.29;99380.60;105372;1256;62049;-42
2023/12/16 00:50:38;;;;;;;2.50;1.90;;;;;;;13.55;52.24;99374.69;105613;1260;75475;-42
2023/12/16 00:53:06;;;;;;;2.30;1.90;;;;;;;13.55;52.28;99374.30;105288;1260;64261;-42
2023/12/16 00:55:33;;;;;;;3.00;1.80;;;;;;;13.55;52.26;99376.41;105367;1260;72492;-41
2023/12/16 00:58:00;;;;;;;2.00;1.80;;;;;;;13.56;52.36;99375.66;105470;1260;62060;-43
2023/12/16 01:00:28;;;;;;;2.10;1.90;;;;;;;13.55;52.25;99372.10;105177;1262;62138;-43
2023/12/16 01:02:55;;;;;;;1.90;1.70;;;;;;;13.56;52.30;99376.30;105188;1261;75476;-44
2023/12/16 01:05:23;;;;;;;2.40;2.10;;;;;;;13.56;52.23;99378.77;105213;1262;65503;-43
2023/12/16 01:07:50;;;;;;;2.40;2.10;;;;;;;13.56;52.32;99376.30;105411;1256;72903;-43
2023/12/16 01:10:18;;;;;;;1.90;1.80;;;;;;;13.56;52.31;99374.15;105631;1262;62585;-43
2023/12/16 01:12:45;;;;;;;2.10;1.90;;;;;;;13.56;52.31;99377.16;105612;1261;62118;-42
2023/12/16 01:15:13;;;;;;;2.20;2.00;;;;;;;13.56;52.48;99374.46;105549;1261;75094;-42
2023/12/16 01:17:40;;;;;;;2.20;1.90;;;;;;;13.56;52.28;99372.27;105497;1261;66393;-42
2023/12/16 01:20:08;;;;;;;2.50;2.00;;;;;;;13.57;52.19;99369.18;105475;1257;72387;-41
2023/12/16 01:22:36;;;;;;;2.00;1.80;;;;;;;13.57;52.25;99363.97;105326;1261;62039;-42
2023/12/16 01:25:05;;;;;;;2.30;1.90;;;;;;;13.56;52.19;99359.23;105405;1256;62160;-42
2023/12/16 01:27:32;;;;;;;2.00;1.80;;;;;;;13.57;52.28;99360.95;105665;1260;75628;-43
2023/12/16 01:30:00;;;;;;;2.50;2.10;;;;;;;13.57;52.13;99363.80;105641;1262;66283;-43
2023/12/16 01:32:27;;;;;;;3.90;2.10;;;;;;;13.57;52.34;99361.05;105604;1260;72603;-41
2023/12/16 01:34:54;;;;;;;2.70;2.00;;;;;;;13.56;52.36;99361.17;105183;1260;62058;-42
2023/12/16 01:37:21;;;;;;;2.10;1.90;;;;;;;13.56;52.40;99359.71;105330;1262;62072;-42
2023/12/16 01:39:49;;;;;;;2.00;1.80;;;;;;;13.57;52.19;99359.13;105582;1260;75151;-42
2023/12/16 01:42:16;;;;;;;2.30;2.10;;;;;;;13.57;52.38;99356.96;105661;1262;66024;-42
2023/12/16 01:44:44;;;;;;;2.50;2.20;;;;;;;13.57;52.21;99364.60;105519;1260;72440;-42
2023/12/16 01:47:11;;;;;;;2.20;1.90;;;;;;;13.57;52.25;99363.38;105619;1261;62058;-41
2023/12/16 01:49:39;;;;;;;2.00;1.70;;;;;;;13.58;52.28;99364.12;105324;1260;62125;-42
2023/12/16 01:52:07;;;;;;;1.80;1.60;;;;;;;13.57;52.28;99364.02;105669;1261;75232;-41
2023/12/16 01:54:35;;;;;;;2.90;2.20;;;;;;;13.57;52.27;99363.70;105637;1260;66328;-42
2023/12/16 01:57:04;;;;;;;2.10;1.90;;;;;;;13.57;52.23;99367.45;105565;1262;72657;-42
2023/12/16 01:59:31;;;;;;;2.60;1.90;;;;;;;13.58;52.32;99370.46;105289;1262;62685;-43
2023/12/16 02:01:59;;;;;;;2.80;2.10;;;;;;;13.57;52.21;99369.28;105445;1260;62359;-41
2023/12/16 02:04:26;;;;;;;2.30;1.80;;;;;;;13.57;52.28;99369.02;105247;1264;75393;-41
2023/12/16 02:06:54;;;;;;;2.90;2.10;;;;;;;13.58;52.18;99367.56;105208;1264;65991;-41
2023/12/16 02:09:23;;;;;;;2.40;2.00;;;;;;;13.58;52.22;99369.44;105457;1260;72623;-41
2023/12/16 02:11:52;;;;;;;2.10;1.90;;;;;;;13.58;52.34;99367.84;105584;1262;62016;-41
2023/12/16 02:14:20;;;;;;;2.70;2.00;;;;;;;13.58;52.34;99376.83;105605;1260;62065;-41
2023/12/16 02:16:47;;;;;;;1.90;1.80;;;;;;;13.58;52.18;99380.11;105540;1262;75239;-41
2023/12/16 02:19:24;;;;;;;2.10;1.90;;;;;;;13.58;52.13;99370.05;105346;1260;65162;-43
2023/12/16 02:21:52;;;;;;;2.40;1.90;;;;;;;13.58;52.21;99371.17;105273;1256;72586;-43
2023/12/16 02:24:20;;;;;;;1.90;1.70;;;;;;;13.58;52.24;99377.75;105206;1262;62076;-43
2023/12/16 02:26:48;;;;;;;2.00;1.80;;;;;;;13.58;52.25;99383.83;105508;1257;62098;-43
2023/12/16 02:29:15;;;;;;;2.10;1.70;;;;;;;13.59;52.17;99386.57;105258;1260;75267;-42
2023/12/16 02:31:44;;;;;;;1.80;1.70;;;;;;;13.59;52.14;99387.69;105629;1260;66380;-42
2023/12/16 02:34:12;;;;;;;2.00;1.80;;;;;;;13.59;52.20;99391.25;105529;1261;72483;-41
2023/12/16 02:36:39;;;;;;;2.10;1.80;;;;;;;13.58;52.16;99392.83;105289;1261;62045;-42
2023/12/16 02:39:07;;;;;;;2.00;1.70;;;;;;;13.58;52.29;99404.23;105646;1256;62098;-42
2023/12/16 02:41:34;;;;;;;2.20;2.00;;;;;;;13.58;52.14;99410.90;105602;1258;74401;-42
2023/12/16 02:44:01;;;;;;;2.00;1.80;;;;;;;13.59;52.14;99416.86;105420;1260;66102;-42
2023/12/16 02:46:30;;;;;;;3.90;1.90;;;;;;;13.59;52.16;99426.94;105516;1260;72606;-42
2023/12/16 02:48:57;;;;;;;2.50;2.10;;;;;;;13.59;52.19;99428.02;105238;1260;61960;-43
2023/12/16 02:51:25;;;;;;;3.70;1.90;;;;;;;13.59;52.24;99433.13;105270;1257;62157;-43
2023/12/16 02:53:53;;;;;;;1.90;1.80;;;;;;;13.60;52.15;99437.70;105399;1259;75370;-42
2023/12/16 02:56:20;;;;;;;2.40;2.20;;;;;;;13.59;52.24;99430.05;105562;1261;66119;-42
2023/12/16 02:58:48;;;;;;;2.30;1.90;;;;;;;13.60;52.15;99431.35;105446;1260;72285;-42
2023/12/16 03:01:16;;;;;;;2.30;2.10;;;;;;;13.60;52.13;99427.74;105435;1260;62049;-43
2023/12/16 03:03:43;;;;;;;2.80;1.80;;;;;;;13.60;52.13;99421.71;105180;1263;62163;-43
2023/12/16 03:06:11;;;;;;;2.20;2.00;;;;;;;13.60;52.20;99426.67;105218;1262;75379;-43
2023/12/16 03:08:38;;;;;;;2.00;1.70;;;;;;;13.60;52.12;99427.31;105521;1260;65670;-41
2023/12/16 03:11:06;;;;;;;1.90;1.70;;;;;;;13.60;52.02;99426.61;105592;1257;72599;-44
2023/12/16 03:13:33;;;;;;;1.90;1.70;;;;;;;13.60;52.08;99423.17;105294;1258;61932;-42
2023/12/16 03:16:00;;;;;;;2.20;1.90;;;;;;;13.60;52.12;99426.25;105637;1262;62055;-42
2023/12/16 03:18:28;;;;;;;1.90;1.60;;;;;;;13.60;52.17;99430.44;105603;1263;75365;-42
2023/12/16 03:20:55;;;;;;;2.10;1.70;;;;;;;13.60;52.01;99437.49;105639;1262;65849;-42
2023/12/16 03:23:22;;;;;;;2.00;1.80;;;;;;;13.60;52.13;99437.98;105422;1261;72376;-42
2023/12/16 03:25:50;;;;;;;1.90;1.70;;;;;;;13.60;52.16;99437.17;105319;1260;62060;-42
2023/12/16 03:28:17;;;;;;;2.80;2.00;;;;;;;13.60;52.18;99444.33;105164;1260;62158;-42
2023/12/16 03:30:44;;;;;;;2.10;1.80;;;;;;;13.60;52.05;99442.66;105257;1256;75339;-41
2023/12/16 03:33:12;;;;;;;2.10;1.90;;;;;;;13.60;52.00;99440.13;105224;1262;65461;-43
2023/12/16 03:35:39;;;;;;;2.00;1.80;;;;;;;13.60;52.09;99434.59;105216;1257;72873;-42
2023/12/16 03:38:07;;;;;;;2.30;2.00;;;;;;;13.60;52.12;99425.80;105614;1260;61923;-42
2023/12/16 03:40:34;;;;;;;2.20;1.80;;;;;;;13.61;52.20;99416.55;105952;1260;62161;-42
2023/12/16 03:43:02;;;;;;;2.30;1.80;;;;;;;13.61;52.07;99412.40;105387;1260;75412;-42
2023/12/16 03:45:29;;;;;;;2.00;1.80;;;;;;;13.60;52.10;99413.36;105978;1259;66128;-42
2023/12/16 03:47:57;;;;;;;2.60;2.40;;;;;;;13.61;52.09;99411.01;105625;1257;72424;-42
2023/12/16 03:50:24;;;;;;;2.20;2.00;;;;;;;13.60;52.15;99402.77;105607;1260;62074;-42
2023/12/16 03:52:52;;;;;;;2.20;2.00;;;;;;;13.61;52.06;99397.20;105576;1258;62161;-42
2023/12/16 03:55:19;;;;;;;2.00;1.80;;;;;;;13.61;51.90;99395.55;105603;1260;75756;-42
2023/12/16 03:57:46;;;;;;;2.00;1.90;;;;;;;13.61;52.09;99392.04;105581;1256;66347;-42
2023/12/16 04:00:14;;;;;;;2.40;2.10;;;;;;;13.61;52.01;99391.27;105371;1257;72443;-42
2023/12/16 04:02:42;;;;;;;2.70;2.00;;;;;;;13.61;52.00;99396.83;105549;1261;62163;-42
2023/12/16 04:05:09;;;;;;;2.70;2.00;;;;;;;13.62;52.05;99397.09;105295;1261;62130;-42
2023/12/16 04:07:36;;;;;;;2.20;1.90;;;;;;;13.61;52.09;99399.90;105378;1260;75402;-42
2023/12/16 04:10:05;;;;;;;2.00;1.80;;;;;;;13.61;52.08;99402.20;105186;1269;65953;-44
2023/12/16 04:12:32;;;;;;;2.00;1.60;;;;;;;13.61;52.11;99398.65;105539;1260;71480;-41
2023/12/16 04:15:00;;;;;;;2.00;1.80;;;;;;;13.61;52.04;99399.73;105431;1258;62053;-43
2023/12/16 04:17:27;;;;;;;2.20;1.90;;;;;;;13.61;52.16;99399.36;105181;1272;62076;-42
2023/12/16 04:19:54;;;;;;;2.40;1.90;;;;;;;13.62;51.98;99403.77;105175;1257;75446;-43
2023/12/16 04:22:22;;;;;;;1.70;1.60;;;;;;;13.62;52.08;99406.84;105275;1260;65479;-43
2023/12/16 04:24:50;;;;;;;2.20;1.90;;;;;;;13.61;52.21;99407.98;105280;1260;72612;-42
2023/12/16 04:27:18;;;;;;;2.40;2.10;;;;;;;13.61;52.14;99408.57;105498;1260;62060;-41
2023/12/16 04:29:45;;;;;;;3.00;2.00;;;;;;;13.62;52.07;99416.52;105552;1257;62060;-42
2023/12/16 04:32:12;;;;;;;2.50;2.20;;;;;;;13.62;52.01;99419.39;105363;1257;75471;-43
2023/12/16 04:34:40;;;;;;;2.10;1.90;;;;;;;13.62;52.11;99420.73;105317;1261;65910;-42
2023/12/16 04:37:07;;;;;;;2.50;1.80;;;;;;;13.62;51.94;99420.73;105456;1258;72383;-42
2023/12/16 04:39:34;;;;;;;2.10;1.90;;;;;;;13.62;52.04;99423.00;105615;1260;62079;-42
2023/12/16 04:42:02;;;;;;;2.20;2.00;;;;;;;13.62;52.07;99427.58;105653;1257;62160;-42
2023/12/16 04:44:29;;;;;;;2.10;1.80;;;;;;;13.62;51.97;99434.46;105525;1260;75923;-42
2023/12/16 04:46:56;;;;;;;2.10;1.80;;;;;;;13.62;52.02;99440.50;105604;1261;66098;-42
2023/12/16 04:49:23;;;;;;;2.30;2.00;;;;;;;13.62;52.10;99445.23;105529;1258;72648;-42
2023/12/16 04:51:51;;;;;;;2.20;2.00;;;;;;;13.63;51.90;99442.71;105531;1260;62088;-42
2023/12/16 04:54:18;;;;;;;2.30;2.10;;;;;;;13.62;52.03;99442.48;105399;1260;62514;-42
2023/12/16 04:56:47;;;;;;;2.70;2.10;;;;;;;13.62;51.96;99442.45;105529;1260;75458;-41
2023/12/16 04:59:14;;;;;;;2.70;1.80;;;;;;;13.62;51.94;99449.98;105368;1260;66385;-41
2023/12/16 05:01:42;;;;;;;2.20;2.00;;;;;;;13.62;52.11;99460.05;105533;1257;72655;-41
2023/12/16 05:04:10;;;;;;;2.10;1.90;;;;;;;13.62;51.98;99467.20;105481;1260;62051;-43
2023/12/16 05:06:37;;;;;;;2.20;2.00;;;;;;;13.62;51.97;99475.66;105443;1260;62496;-43
2023/12/16 05:09:12;;;;;;;2.50;2.00;;;;;;;13.63;52.00;99479.54;105439;1260;76027;-42
2023/12/16 05:11:39;;;;;;;2.40;2.10;;;;;;;13.63;52.05;99480.63;105482;1261;64053;-41
2023/12/16 05:14:07;;;;;;;2.30;2.10;;;;;;;13.62;52.09;99480.67;105461;1258;72385;-41
2023/12/16 05:16:34;;;;;;;1.80;1.60;;;;;;;13.63;52.02;99487.45;105412;1261;62089;-41
2023/12/16 05:19:03;;;;;;;1.80;1.70;;;;;;;13.63;52.03;99488.31;105387;1261;62192;-42
2023/12/16 05:21:31;;;;;;;2.50;1.90;;;;;;;13.63;51.95;99490.41;105581;1260;74762;-41
2023/12/16 05:23:58;;;;;;;2.50;2.10;;;;;;;13.63;51.94;99495.31;105591;1260;66301;-41
2023/12/16 05:26:25;;;;;;;2.40;2.10;;;;;;;13.63;52.00;99498.55;105218;1260;72412;-42
2023/12/16 05:28:53;;;;;;;3.60;1.90;;;;;;;13.63;51.97;99498.33;105262;1257;61959;-41
2023/12/16 05:31:20;;;;;;;3.10;1.90;;;;;;;13.63;52.03;99497.42;105604;1260;62066;-41
2023/12/16 05:33:47;;;;;;;4.40;2.20;;;;;;;13.63;51.90;99499.80;105425;1261;75358;-41
2023/12/16 05:36:15;;;;;;;2.40;2.00;;;;;;;13.63;52.08;99501.19;105401;1260;66218;-44
2023/12/16 05:38:42;;;;;;;2.00;1.80;;;;;;;13.63;51.96;99500.33;105544;1258;71413;-41
2023/12/16 05:41:12;;;;;;;3.30;1.90;;;;;;;13.63;52.04;99511.09;105533;1262;62151;-41
2023/12/16 05:43:40;;;;;;;2.00;1.80;;;;;;;13.63;52.00;99514.92;105533;1260;62012;-42
2023/12/16 05:46:07;;;;;;;1.90;1.70;;;;;;;13.63;52.08;99516.80;105506;1261;75395;-41
2023/12/16 05:48:38;;;;;;;1.90;1.80;;;;;;;13.63;52.00;99521.11;105291;1260;65047;-43
2023/12/16 05:51:05;;;;;;;2.10;1.90;;;;;;;13.63;52.05;99525.09;105455;1257;72310;-44
2023/12/16 05:53:34;;;;;;;2.30;2.10;;;;;;;13.63;51.91;99527.34;105653;1260;62050;-42
2023/12/16 05:56:06;;;;;;;2.30;2.10;;;;;;;13.63;52.08;99525.80;105473;1256;62152;-42
2023/12/16 05:58:33;;;;;;;2.40;2.20;;;;;;;13.63;51.96;99526.06;105273;1260;74054;-42
2023/12/16 06:01:01;;;;;;;2.10;1.90;;;;;;;13.63;51.93;99528.05;105404;1258;65403;-41
2023/12/16 06:03:28;;;;;;;2.10;1.80;;;;;;;13.63;51.94;99531.98;105546;1260;72649;-41
2023/12/16 06:05:56;;;;;;;2.30;1.90;;;;;;;13.64;51.88;99538.33;105546;1261;62048;-41
2023/12/16 06:08:23;;;;;;;3.00;2.30;;;;;;;13.63;51.94;99540.60;105627;1259;62064;-41
2023/12/16 06:10:50;;;;;;;2.60;2.10;;;;;;;13.64;51.90;99539.84;105491;1258;75151;-44
2023/12/16 06:13:17;;;;;;;3.10;2.00;;;;;;;13.64;52.08;99536.23;105388;1260;65976;-41
2023/12/16 06:15:45;;;;;;;3.50;1.90;;;;;;;13.64;51.99;99539.36;105220;1257;72375;-42
2023/12/16 06:18:12;;;;;;;2.40;1.90;;;;;;;13.64;51.97;99542.95;105327;1260;62054;-42
2023/12/16 06:20:39;;;;;;;2.20;1.80;;;;;;;13.64;52.01;99539.94;105252;1257;62121;-42
2023/12/16 06:23:07;;;;;;;2.40;1.90;;;;;;;13.64;52.03;99542.04;105626;1260;75257;-42
2023/12/16 06:25:34;;;;;;;2.00;1.80;;;;;;;13.64;51.88;99535.48;105566;1259;65274;-42
2023/12/16 06:28:02;;;;;;;5.10;2.20;;;;;;;13.64;51.97;99536.02;105566;1257;72624;-42
2023/12/16 06:30:29;;;;;;;3.20;2.30;;;;;;;13.64;51.91;99531.60;106054;1257;62143;-42
2023/12/16 06:32:56;;;;;;;2.00;1.80;;;;;;;13.64;51.92;99530.85;105384;1256;62072;-43
2023/12/16 06:35:24;;;;;;;2.80;2.00;;;;;;;13.63;51.88;99531.45;105279;1260;75358;-44
2023/12/16 06:37:51;;;;;;;2.30;1.90;;;;;;;13.63;51.82;99531.52;105409;1260;65800;-42
2023/12/16 06:40:19;;;;;;;2.10;1.90;;;;;;;13.63;51.97;99530.48;105529;1258;72426;-42
2023/12/16 06:42:46;;;;;;;2.60;1.80;;;;;;;13.63;52.02;99529.23;105381;1258;62163;-42
2023/12/16 06:45:14;;;;;;;2.50;1.90;;;;;;;13.63;51.84;99531.55;105322;1257;62048;-43
2023/12/16 06:47:41;;;;;;;1.80;1.60;;;;;;;13.63;51.85;99527.30;105337;1259;75407;-42
2023/12/16 06:50:09;;;;;;;2.30;2.10;;;;;;;13.62;51.78;99528.10;105340;1257;66251;-41
2023/12/16 06:52:36;;;;;;;2.20;1.90;;;;;;;13.62;51.86;99532.24;105486;1261;72346;-41
2023/12/16 06:55:04;;;;;;;1.90;1.70;;;;;;;13.63;51.81;99534.30;105438;1257;61973;-42
2023/12/16 06:57:32;;;;;;;2.40;1.90;;;;;;;13.62;51.80;99534.40;105678;1257;62034;-42
2023/12/16 06:59:59;;;;;;;2.60;2.00;;;;;;;13.62;51.79;99533.70;105484;1258;159760;-42
2023/12/16 07:02:27;;;;;;;3.00;2.10;;;;;;;13.61;51.90;99533.27;105507;1260;66319;-42
2023/12/16 07:04:54;;;;;;;2.10;1.90;;;;;;;13.61;51.85;99528.74;105615;1258;72638;-42
2023/12/16 07:07:21;;;;;;;2.20;1.80;;;;;;;13.62;51.84;99534.08;105649;1257;62142;-42
2023/12/16 07:09:48;;;;;;;2.30;1.90;;;;;;;13.62;51.94;99526.75;105607;1256;62228;-42
2023/12/16 07:12:16;;;;;;;2.20;1.90;;;;;;;13.61;51.89;99534.66;105613;1257;74327;-42
2023/12/16 07:14:43;;;;;;;2.30;1.80;;;;;;;13.61;51.68;99534.34;105596;1258;66242;-42
2023/12/16 07:17:11;;;;;;;2.70;2.10;;;;;;;13.61;51.74;99535.70;105635;1257;72318;-42
2023/12/16 07:19:38;;;;;;;2.10;1.90;;;;;;;13.60;51.88;99533.98;105359;1260;62092;-42
2023/12/16 07:22:06;;;;;;;2.20;1.80;;;;;;;13.60;51.78;99541.20;105460;1257;62069;-42
2023/12/16 07:24:33;;;;;;;2.20;2.00;;;;;;;13.60;51.75;99548.52;105580;1257;75151;-41
2023/12/16 07:27:01;;;;;;;2.80;2.20;;;;;;;13.60;51.88;99546.84;105594;1260;65133;-42
2023/12/16 07:29:28;;;;;;;2.10;1.90;;;;;;;13.59;51.65;99545.45;105589;1257;72386;-42
2023/12/16 07:31:55;;;;;;;1.90;1.80;;;;;;;13.59;51.72;99549.80;105600;1261;62665;-42
2023/12/16 07:34:23;;;;;;;2.80;1.90;;;;;;;13.59;51.82;99555.73;105626;1257;62103;-42
2023/12/16 07:36:50;;;;;;;2.00;1.70;;;;;;;13.59;51.78;99555.56;105600;1257;75374;-42
2023/12/16 07:39:18;;;;;;;2.90;2.20;;;;;;;13.59;51.72;99558.96;105563;1260;65069;-41
2023/12/16 07:41:46;;;;;;;2.10;1.90;;;;;;;13.58;51.84;99556.06;105541;1257;72676;-41
2023/12/16 07:44:13;;;;;;;2.20;1.90;;;;;;;13.58;51.70;99555.25;105601;1256;62092;-41
2023/12/16 07:46:40;;;;;;;2.50;2.00;;;;;;;13.58;51.88;99561.71;105460;1258;62432;-41
2023/12/16 07:49:08;;;;;;;2.80;2.40;;;;;;;13.57;51.84;99564.84;105508;1260;74524;-41
2023/12/16 07:51:36;;;;;;;2.30;2.10;;;;;;;13.57;51.69;99563.48;105565;1257;66695;-41
2023/12/16 07:54:03;;;;;;;2.40;2.00;;;;;;;13.57;51.84;99570.70;105611;1257;71297;-42
2023/12/16 07:56:30;;;;;;;2.40;2.00;;;;;;;13.57;51.80;99575.55;105384;1260;62049;-41
2023/12/16 07:58:58;;;;;;;2.80;2.00;;;;;;;13.56;51.76;99575.83;105296;1260;62089;-41
2023/12/16 08:01:25;;;;;;;2.00;1.80;;;;;;;13.56;51.78;99581.16;105349;1260;75191;-41
2023/12/16 08:03:52;;;;;;;3.10;2.00;;;;;;;13.56;51.67;99588.85;105509;1257;66161;-42
2023/12/16 08:06:20;;;;;;;2.50;2.30;;;;;;;13.55;51.89;99592.99;105584;1257;72596;-42
2023/12/16 08:08:48;;;;;;;2.20;2.00;;;;;;;13.55;51.83;99592.35;105590;1260;62049;-42
2023/12/16 08:11:15;;;;;;;2.90;2.10;;;;;;;13.54;51.79;99596.98;105484;1257;62129;-41
2023/12/16 08:13:42;;;;;;;2.30;2.00;;;;;;;13.54;51.81;99600.86;105625;1260;75298;-41
2023/12/16 08:16:11;;;;;;;2.80;2.30;;;;;;;13.53;51.85;99606.52;105544;1257;66047;-41
2023/12/16 08:18:39;;;;;;;2.50;2.00;;;;;;;13.53;51.79;99615.77;105561;1257;72593;-43
2023/12/16 08:21:06;;;;;;;2.20;2.00;;;;;;;13.53;51.83;99615.29;105474;1256;62057;-43
2023/12/16 08:23:34;;;;;;;2.60;2.10;;;;;;;13.52;51.82;99615.77;105572;1258;62146;-43
2023/12/16 08:26:01;;;;;;;3.30;2.40;;;;;;;13.52;51.77;99614.31;105596;1260;75443;-43
2023/12/16 08:28:29;;;;;;;2.50;2.10;;;;;;;13.51;51.88;99612.77;105248;1261;66100;-44
2023/12/16 08:30:57;;;;;;;2.70;2.20;;;;;;;13.52;51.72;99610.59;105306;1257;72380;-42
2023/12/16 08:33:24;;;;;;;2.50;2.30;;;;;;;13.51;51.84;99609.80;105577;1260;62056;-42
2023/12/16 08:35:52;;;;;;;2.50;2.20;;;;;;;13.51;51.86;99612.86;105651;1257;62050;-42
2023/12/16 08:38:19;;;;;;;2.40;2.20;;;;;;;13.50;51.74;99613.30;105273;1256;75367;-42
2023/12/16 08:40:46;;;;;;;2.60;2.20;;;;;;;13.50;51.77;99609.75;105233;1260;64928;-42
2023/12/16 08:43:14;;;;;;;2.60;2.20;;;;;;;13.50;51.81;99601.18;105418;1256;72575;-42
2023/12/16 08:45:41;;;;;;;3.30;2.30;;;;;;;13.50;51.82;99597.48;105244;1260;62073;-42
2023/12/16 08:48:08;;;;;;;3.00;2.30;;;;;;;13.49;51.76;99603.45;105272;1256;62145;-42
2023/12/16 08:50:36;;;;;;;2.70;2.40;;;;;;;13.49;51.75;99613.67;105336;1257;75409;-42
2023/12/16 08:53:03;;;;;;;2.90;2.40;;;;;;;13.49;51.77;99613.53;105257;1259;66606;-43
2023/12/16 08:55:30;;;;;;;3.40;2.10;;;;;;;13.50;51.81;99611.68;105174;1257;72652;-41
2023/12/16 08:57:58;;;;;;;2.90;2.40;;;;;;;13.49;51.80;99609.86;105177;1260;62076;-42
2023/12/16 09:00:25;;;;;;;2.30;2.10;;;;;;;13.49;51.78;99604.10;105162;1257;62073;-42
2023/12/16 09:02:52;;;;;;;2.40;2.00;;;;;;;13.49;51.80;99600.55;105220;1260;75130;-42
2023/12/16 09:05:20;;;;;;;2.30;2.10;;;;;;;13.48;51.72;99605.77;105217;1256;65167;-42
2023/12/16 09:07:47;;;;;;;2.20;2.00;;;;;;;13.48;51.65;99606.14;105530;1257;72669;-42
2023/12/16 09:10:15;;;;;;;2.50;2.20;;;;;;;13.48;51.84;99607.43;105551;1260;62062;-42
2023/12/16 09:12:42;;;;;;;2.20;2.00;;;;;;;13.48;51.72;99607.64;105615;1256;62014;-42
2023/12/16 09:15:10;;;;;;;2.30;2.10;;;;;;;13.48;51.74;99607.05;105125;1260;75349;-42
2023/12/16 09:17:37;;;;;;;2.70;2.40;;;;;;;13.48;51.76;99608.72;105192;1260;66238;-42
2023/12/16 09:20:06;;;;;;;2.70;2.20;;;;;;;13.48;51.77;99624.17;105182;1256;72625;-41
2023/12/16 09:22:33;;;;;;;2.50;2.30;;;;;;;13.47;51.74;99630.14;105353;1256;62044;-43
2023/12/16 09:25:01;;;;;;;2.40;2.20;;;;;;;13.47;51.78;99624.11;105341;1260;62756;-43
2023/12/16 09:27:28;;;;;;;2.20;2.00;;;;;;;13.47;51.79;99626.80;105473;1260;75445;-43
2023/12/16 09:29:56;;;;;;;3.90;2.30;;;;;;;13.47;51.78;99630.41;105549;1256;66071;-42
2023/12/16 09:32:23;;;;;;;2.70;2.40;;;;;;;13.47;51.64;99631.80;105606;1256;72570;-42
2023/12/16 09:34:50;;;;;;;2.80;2.10;;;;;;;13.47;51.77;99622.56;105352;1260;62074;-42
2023/12/16 09:37:18;;;;;;;2.60;2.40;;;;;;;13.47;51.75;99611.95;105366;1261;62048;-42
2023/12/16 09:39:45;;;;;;;3.00;2.60;;;;;;;13.46;51.87;99607.22;105328;1256;74444;-41
2023/12/16 09:42:14;;;;;;;3.30;2.50;;;;;;;13.46;51.91;99615.98;105664;1260;66236;-41
2023/12/16 09:44:44;;;;;;;2.40;2.20;;;;;;;13.46;51.73;99621.05;105440;1262;71129;-42
2023/12/16 09:47:12;;;;;;;4.00;2.50;;;;;;;13.46;51.69;99620.73;105069;1263;62107;-42
2023/12/16 09:49:40;;;;;;;2.40;2.20;;;;;;;13.46;51.67;99619.02;105130;1256;62181;-42
2023/12/16 09:52:08;;;;;;;4.00;2.40;;;;;;;13.46;51.81;99616.64;105279;1260;75421;-42
2023/12/16 09:54:38;;;;;;;2.90;2.40;;;;;;;13.45;51.67;99620.17;105202;1257;65339;-42
2023/12/16 09:57:05;;;;;;;3.80;2.30;;;;;;;13.45;51.71;99611.95;105565;1256;71263;-42
2023/12/16 09:59:32;;;;;;;2.70;2.40;;;;;;;13.45;51.70;99608.02;105479;1261;62321;-42
2023/12/16 10:02:03;;;;;;;2.60;2.10;;;;;;;13.45;51.80;99604.48;105321;1256;62419;-42
2023/12/16 10:04:31;;;;;;;2.90;2.50;;;;;;;13.44;51.74;99601.67;105303;1260;75851;-44
2023/12/16 10:06:58;;;;;;;2.70;2.40;;;;;;;13.45;51.75;99603.23;105301;1260;65001;-44
2023/12/16 10:09:25;;;;;;;4.40;2.50;;;;;;;13.45;51.66;99596.77;105546;1256;72568;-41
2023/12/16 10:11:56;;;;;;;3.10;2.40;;;;;;;13.44;51.65;99596.83;105354;1260;62076;-43
2023/12/16 10:14:23;;;;;;;2.40;2.20;;;;;;;13.45;51.74;99593.91;105218;1258;62086;-43
2023/12/16 10:17:01;;;;;;;2.50;2.30;;;;;;;13.44;51.87;99597.52;105456;1261;75411;-42
2023/12/16 10:19:28;;;;;;;2.90;2.20;;;;;;;13.44;51.66;99594.35;105581;1256;66215;-42
2023/12/16 10:21:56;;;;;;;2.70;2.30;;;;;;;13.45;51.72;99595.54;105434;1256;72563;-42
2023/12/16 10:24:23;;;;;;;2.50;2.30;;;;;;;13.44;51.77;99597.05;105328;1260;62076;-43
2023/12/16 10:26:51;;;;;;;2.80;2.30;;;;;;;13.44;51.66;99594.25;105451;1260;62165;-41
2023/12/16 10:29:19;;;;;;;2.90;2.50;;;;;;;13.43;51.58;99598.06;105536;1257;74377;-41
2023/12/16 10:31:46;;;;;;;2.50;2.30;;;;;;;13.43;51.79;99602.10;105603;1256;66267;-42
2023/12/16 10:34:17;;;;;;;2.30;2.10;;;;;;;13.42;51.62;99609.38;105550;1255;72595;-42
2023/12/16 10:36:44;;;;;;;3.60;2.50;;;;;;;13.42;51.80;99607.77;105643;1256;62601;-42
2023/12/16 10:39:13;;;;;;;2.50;2.30;;;;;;;13.42;51.71;99607.87;105638;1256;62041;-41
2023/12/16 10:41:41;;;;;;;3.30;2.40;;;;;;;13.42;51.80;99600.55;105628;1257;75357;-42
2023/12/16 10:44:08;;;;;;;2.50;2.30;;;;;;;13.41;51.72;99591.29;105404;1256;65953;-42
2023/12/16 10:46:36;;;;;;;3.50;2.50;;;;;;;13.41;51.73;99587.89;105519;1256;72361;-41
2023/12/16 10:49:04;;;;;;;2.50;2.30;;;;;;;13.41;51.87;99589.51;105639;1256;61951;-41
2023/12/16 10:51:32;;;;;;;3.30;2.60;;;;;;;13.41;51.78;99590.05;105593;1260;61982;-42
2023/12/16 10:54:03;;;;;;;2.40;2.20;;;;;;;13.41;51.68;99588.11;105279;1258;75248;-43
2023/12/16 10:56:32;;;;;;;2.90;2.50;;;;;;;13.41;51.72;99585.58;105174;1261;66249;-42
2023/12/16 10:59:05;;;;;;;2.70;2.30;;;;;;;13.41;51.74;99579.11;105367;1262;72583;-42
2023/12/16 11:01:37;;;;;;;5.50;2.40;;;;;;;13.41;51.70;99583.48;105629;1256;62070;-42
2023/12/16 11:04:12;;;;;;;2.70;2.30;;;;;;;13.40;51.70;99582.23;105501;1258;62028;-42
2023/12/16 11:07:09;;;;;;;3.20;2.50;;;;;;;13.40;51.77;99578.85;105547;1257;76537;-42
2023/12/16 11:09:37;;;;;;;2.50;2.30;;;;;;;13.40;51.69;99581.91;105493;1260;66969;-42
2023/12/16 11:12:06;;;;;;;2.90;2.50;;;;;;;13.40;51.66;99587.79;105599;1256;72619;-42
2023/12/16 11:14:34;;;;;;;2.90;2.30;;;;;;;13.39;51.65;99585.31;105423;1263;62096;-41
2023/12/16 11:17:09;;;;;;;2.70;2.40;;;;;;;13.39;51.74;99586.39;105450;1260;62056;-41
2023/12/16 11:19:38;;;;;;;4.80;2.70;;;;;;;13.39;51.54;99585.42;105153;1256;75351;-42
2023/12/16 11:22:05;;;;;;;2.80;2.50;;;;;;;13.39;51.76;99583.15;105251;1256;66462;-42
2023/12/16 11:24:40;;;;;;;6.20;2.50;;;;;;;13.39;51.57;99576.48;105229;1256;73704;-44
2023/12/16 11:27:07;;;;;;;2.80;2.50;;;;;;;13.38;51.60;99571.68;105306;1256;61931;-42